Latest Weather Observations for Tarcoola

IDS60801

Issued at 7:05 pm CDT Saturday 1 November 2014 (issued every 30 minutes, with the page automatically refreshed every 10 minutes)

About weather observations | Map of weather stations | Latest weather observations for SA | Other Formats
Station Details ID: 016098 Name: TARCOOLA AERO Lat: -30.71 Lon: 134.58 Height: 123.0 m
Data from the previous 72 hours. | See also: Recent months at Tarcoola
Date/Time
CDT
Temp
°C
App
Temp
°C
Dew
Point
Rel
Hum
%
Delta-T
°C
Wind Press
QNH
hPa
Press
MSL
hPa
Rain
since 9 am
mm
Dir
 
Spd
km/h
Gust
km/h
Spd
kts
Gust
kts
01/07:00pm 23.4 16.7 1.7 24 10.2 S 26 35 14 19 1019.0 1018.5 0.0
01/06:30pm 24.2 17.8 1.2 22 10.8 S 24 39 13 21 1019.0 1018.5 0.0
01/06:00pm 25.0 18.2 0.5 20 11.4 SSW 26 39 14 21 1018.5 1018.0 0.0
01/05:30pm 25.3 18.1 0.7 20 11.5 SSW 28 39 15 21 1018.2 1017.7 0.0
01/05:00pm 25.4 19.0 0.8 20 11.6 S 24 39 13 21 1018.2 1017.7 0.0
01/04:30pm 25.4 20.0 2.2 22 11.2 S 20 30 11 16 1018.0 1017.5 0.0
01/04:00pm 24.7 19.3 2.2 23 10.8 SSW 20 37 11 20 1018.0 1017.5 0.0
01/03:30pm 23.9 18.4 2.1 24 10.4 SSW 20 32 11 17 1017.9 1017.4 0.0
01/03:00pm 23.8 17.5 1.4 23 10.5 SSW 24 35 13 19 1018.4 1017.9 0.0
01/02:30pm 24.0 17.7 1.6 23 10.6 SW 24 39 13 21 1018.7 1018.2 0.0
01/02:00pm 22.2 16.3 1.8 26 9.6 S 22 35 12 19 1019.4 1018.9 0.0
01/01:30pm 22.7 17.6 3.3 28 9.4 SSE 19 28 10 15 1019.7 1019.2 0.0
01/01:00pm 21.4 16.2 2.2 28 9.0 SSW 19 30 10 16 1020.0 1019.5 0.0
01/12:30pm 20.2 13.9 1.6 29 8.5 S 24 37 13 20 1020.2 1019.7 0.0
01/12:00pm 19.7 13.5 2.1 31 8.1 SSW 24 41 13 22 1020.5 1019.9 0.0
01/11:30am 19.3 14.1 3.5 35 7.5 SSE 20 35 11 19 1020.3 1019.8 0.0
01/11:00am 18.8 12.5 3.8 37 7.1 S 26 35 14 19 1020.5 1019.9 0.0
01/10:30am 17.5 11.0 4.5 42 6.2 S 28 41 15 22 1020.0 1019.5 0.0
01/10:00am 17.1 9.9 5.1 45 5.8 S 32 41 17 22 1019.7 1019.4 0.0
01/09:30am 16.6 9.5 5.3 47 5.4 SSW 32 46 17 25 1019.3 1019.0 0.0
01/09:00am 16.1 9.3 6.8 54 4.6 SSW 32 44 17 24 1018.8 1018.5 5.0
01/08:30am 15.0 7.6 6.6 57 4.1 SSW 35 48 19 26 1018.4 1018.1 5.0
01/08:00am 15.0 9.4 8.9 67 3.1 SSW 28 43 15 23 1018.0 1017.7 5.0
01/07:30am 14.8 9.2 10.2 74 2.4 SSW 30 43 16 23 1017.4 1017.1 5.0
01/07:00am 14.5 9.0 10.5 77 2.1 SSW 30 39 16 21 1016.9 1016.6 5.0
01/06:30am 14.6 8.5 10.4 76 2.2 SSW 33 43 18 23 1016.0 1015.7 5.0
01/06:00am 15.3 10.9 11.7 79 2.0 SW 26 37 14 20 1015.6 1015.3 5.0
01/05:30am 15.4 11.5 12.2 81 1.8 SW 24 32 13 17 1015.1 1014.7 5.0
01/05:00am 15.4 10.3 12.0 80 1.9 SW 30 39 16 21 1014.8 1014.4 5.0
01/04:45am 15.4 10.6 11.8 79 2.0 SW 28 43 15 23 1014.4 1014.0 5.0
01/04:30am 15.5 12.6 12.3 81 1.8 SW 19 24 10 13 1014.4 1014.0 5.0
01/04:00am 15.3 13.9 12.1 81 1.8 SW 11 15 6 8 1014.0 1013.6 5.0
01/03:30am 15.2 13.3 11.8 80 1.8 SW 13 17 7 9 1013.7 1013.3 5.0
01/03:00am 15.3 12.7 11.9 80 1.9 SW 17 20 9 11 1013.3 1012.9 5.0
01/02:30am 15.3 12.6 11.7 79 2.0 SW 17 24 9 13 1013.2 1012.8 5.0
01/02:00am 15.6 12.4 11.8 78 2.1 SW 20 28 11 15 1013.1 1012.7 5.0
01/01:30am 16.0 11.6 11.8 76 2.3 SW 26 39 14 21 1013.2 1012.8 5.0
01/01:00am 16.6 13.3 12.8 78 2.1 SW 22 32 12 17 1012.9 1012.5 5.0
01/12:30am 17.0 13.4 12.9 77 2.3 SW 24 33 13 18 1012.4 1012.0 5.0
01/12:00am 17.4 13.6 13.5 78 2.2 SW 26 37 14 20 1012.2 1011.8 5.0
 
Date/Time
CDT
Temp
°C
App
Temp
°C
Dew
Point
Rel
Hum
%
Delta-T
°C
Wind Press
QNH
hPa
Press
MSL
hPa
Rain
since 9 am
mm
Dir
 
Spd
km/h
Gust
km/h
Spd
kts
Gust
kts
31/11:30pm 17.9 14.7 14.2 79 2.1 SW 24 32 13 17 1011.5 1011.2 5.0
31/11:00pm 18.4 15.6 14.3 77 2.4 SW 22 30 12 16 1011.1 1010.8 5.0
31/10:30pm 18.9 14.2 14.4 75 2.6 SW 32 41 17 22 1010.8 1010.5 5.0
31/10:00pm 19.0 13.3 14.3 74 2.7 SSW 37 54 20 29 1010.4 1010.1 5.0
31/09:43pm 19.5 13.4 14.1 71 3.1 SW 39 61 21 33 1009.9 1009.6 5.0
31/09:30pm 20.2 14.0 13.9 67 3.7 SSW 39 52 21 28 1009.7 1009.4 5.0
31/09:22pm 21.0 15.8 13.4 62 4.4 SSW 33 52 18 28 1009.5 1009.2 5.0
31/09:00pm 22.5 19.5 13.8 58 5.1 SSW 22 35 12 19 1008.6 1008.3 5.0
31/08:30pm 22.2 20.7 14.3 61 4.7 S 15 22 8 12 1007.3 1006.9 5.0
31/08:00pm 21.2 19.4 16.0 72 3.1 SSW 20 26 11 14 1006.8 1006.4 5.0
31/07:49pm 20.8 20.5 16.4 76 2.7 SSW 13 20 7 11 1005.5 1005.1 5.0
31/07:30pm 22.1 19.4 15.5 66 4.0 W 24 39 13 21 1007.5 1007.1 4.2
31/07:15pm 23.4 19.0 14.1 56 5.5 W 30 41 16 22 1007.1 1006.7 3.8
31/07:00pm 23.8 18.8 13.9 54 5.8 WSW 33 46 18 25 1005.1 1004.7 3.8
31/06:58pm 23.9 18.8 13.7 53 6.0 WSW 33 46 18 25 1004.9 1004.5 3.8
31/06:45pm 24.1 20.0 13.9 53 6.0 SSW 28 48 15 26 1002.8 1002.5 3.8
31/06:30pm 24.5 24.3 15.7 58 5.4 S 11 17 6 9 1001.9 1001.6 3.8
31/06:00pm 24.1 20.4 15.9 60 5.0 S 30 43 16 23 1002.3 1002.0 3.8
31/05:44pm 24.4 21.1 16.1 60 5.1 SW 28 48 15 26 1002.8 1002.5 3.4
31/05:30pm 24.8 22.5 17.5 64 4.6 SSW 26 35 14 19 1001.7 1001.4 3.4
31/05:00pm 26.8 25.3 17.6 57 5.8 SSW 22 37 12 20 1001.1 1000.7 3.4
31/04:30pm 23.3 19.0 15.9 63 4.5 W 33 74 18 40 1002.1 1001.8 3.4
31/04:26pm 23.8 18.4 15.0 57 5.3 WSW 37 74 20 40 1002.8 1002.5 1.0
31/04:25pm 26.3 22.0 15.4 51 6.6 WSW 32 46 17 25 1002.4 1002.1 0.0
31/04:09pm 31.4 21.5 8.4 24 12.8 SW 50 69 27 37 1001.0 1000.6 0.0
31/04:07pm 32.7 22.2 7.5 21 13.9 WSW 52 69 28 37 1001.0 1000.6 0.0
31/04:06pm 35.0 28.8 7.9 19 15.2 W 30 69 16 37 1001.2 1000.8 0.0
31/04:00pm 36.9 30.7 7.8 17 16.5 NW 30 35 16 19 1000.3 999.9 0.0
31/03:30pm 39.1 32.3 6.7 14 18.3 NW 32 43 17 23 1000.8 1000.4 0.0
31/03:08pm 38.5 31.2 7.3 15 17.7 NNW 35 54 19 29 1001.3 1000.9 0.0
31/03:00pm 38.5 31.8 7.3 15 17.8 NNW 32 46 17 25 1001.5 1001.2 0.0
31/02:30pm 37.8 31.6 7.7 16 17.2 NW 30 48 16 26 1002.5 1002.2 0.0
31/02:28pm 37.9 31.7 7.7 16 17.2 WNW 30 48 16 26 1002.6 1002.3 0.0
31/02:00pm 36.7 29.9 6.8 16 16.7 N 32 48 17 26 1003.1 1002.8 0.0
31/01:30pm 36.2 32.2 8.1 18 16.0 NNW 19 33 10 18 1003.8 1003.4 0.0
31/01:00pm 35.5 32.3 8.3 19 15.4 N 15 24 8 13 1004.6 1004.2 0.0
31/12:30pm 35.1 30.3 8.8 20 15.1 NW 24 37 13 20 1005.3 1004.9 0.0
31/12:00pm 34.6 30.8 9.1 21 14.6 NW 19 30 10 16 1005.6 1005.2 0.0
31/11:30am 32.6 28.5 8.8 23 13.5 WNW 20 28 11 15 1006.1 1005.7 0.0
31/11:00am 31.9 26.9 9.4 25 12.8 WNW 26 33 14 18 1006.4 1006.0 0.0
31/10:30am 31.3 27.4 9.5 26 12.4 W 20 30 11 16 1006.4 1006.0 0.0
31/10:00am 29.8 25.6 9.9 29 11.3 W 22 28 12 15 1006.8 1006.4 0.0
31/09:30am 28.6 24.8 9.8 31 10.6 W 20 30 11 16 1007.1 1006.7 0.0
31/09:00am 27.0 22.7 10.7 36 9.3 W 24 33 13 18 1007.3 1006.9 0.0
31/08:30am 26.5 22.5 10.6 37 9.0 WNW 22 32 12 17 1007.3 1006.9 0.0
31/08:00am 25.2 21.9 11.0 41 8.0 W 19 26 10 14 1007.3 1006.9 0.0
31/07:30am 24.8 22.7 11.0 42 7.8 WNW 13 17 7 9 1007.1 1006.7 0.0
31/07:00am 23.0 20.8 10.8 46 6.8 NNW 13 17 7 9 1007.0 1006.6 0.0
31/06:30am 22.3 22.5 10.5 47 6.5 CALM 0 0 0 0 1006.4 1006.0 0.0
31/06:00am 24.0 22.0 10.3 42 7.6 NW 11 17 6 9 1006.1 1005.7 0.0
31/05:30am 24.8 21.1 10.3 40 8.1 NW 20 28 11 15 1006.7 1006.3 0.0
31/05:00am 25.3 21.2 10.0 38 8.5 NW 22 30 12 16 1006.9 1006.5 0.0
31/04:30am 26.1 21.2 9.9 36 9.0 NW 26 33 14 18 1007.0 1006.6 0.0
31/04:00am 26.2 21.6 9.5 35 9.2 NW 24 33 13 18 1007.1 1006.7 0.0
31/03:30am 26.3 22.4 9.6 35 9.3 NNW 20 26 11 14 1007.1 1006.7 0.0
31/03:00am 26.0 23.2 8.5 33 9.5 NNW 13 17 7 9 1006.9 1006.5 0.0
31/02:30am 26.5 23.3 8.5 32 9.8 NNW 15 19 8 10 1007.1 1006.7 0.0
31/02:00am 27.8 24.4 7.6 28 10.9 NNW 15 22 8 12 1007.4 1007.0 0.0
31/01:30am 29.1 24.2 7.1 25 11.9 NNW 22 30 12 16 1008.1 1007.7 0.0
31/01:00am 29.2 24.7 -0.1 15 14.0 N 13 17 7 9 1008.3 1007.9 0.0
31/12:30am 28.6 24.7 -1.5 14 14.0 N 9 15 5 8 1008.6 1008.3 0.0
31/12:00am 29.2 24.6 -4.3 11 14.9 N 11 13 6 7 1008.7 1008.4 0.0
 
Date/Time
CDT
Temp
°C
App
Temp
°C
Dew
Point
Rel
Hum
%
Delta-T
°C
Wind Press
QNH
hPa
Press
MSL
hPa
Rain
since 9 am
mm
Dir
 
Spd
km/h
Gust
km/h
Spd
kts
Gust
kts
30/11:30pm 30.6 25.0 -3.2 11 15.4 N 17 24 9 13 1008.9 1008.6 0.0
30/11:00pm 28.8 24.3 -3.4 12 14.4 N 11 13 6 7 1008.9 1008.6 0.0
30/10:30pm 28.2 23.2 -3.9 12 14.2 NE 13 15 7 8 1008.9 1008.6 0.0
30/10:00pm 29.1 24.6 -3.2 12 14.6 NNE 11 13 6 7 1009.5 1009.2 0.0
30/09:30pm 29.6 25.4 -3.9 11 15.0 NE 9 9 5 5 1009.5 1009.2 0.0
30/09:00pm 30.3 27.9 -3.4 11 15.3 CALM 0 0 0 0 1009.3 1009.0 0.0
30/08:30pm 30.7 28.3 -3.1 11 15.5 CALM 0 6 0 3 1009.0 1008.7 0.0
30/08:00pm 31.6 27.4 -3.7 10 16.1 NNE 9 9 5 5 1008.8 1008.5 0.0
30/07:30pm 33.1 28.9 -4.0 9 17.1 N 9 13 5 7 1008.6 1008.3 0.0
30/07:00pm 34.6 29.4 -2.9 9 17.7 N 15 20 8 11 1008.5 1008.2 0.0
30/06:30pm 34.7 28.7 -2.8 9 17.8 N 19 28 10 15 1008.7 1008.4 0.0
30/06:00pm 34.9 28.8 -2.6 9 17.9 NNW 20 28 11 15 1008.9 1008.6 0.0
30/05:30pm 34.7 31.0 -2.8 9 17.8 N 7 17 4 9 1009.0 1008.7 0.0
30/05:00pm 34.7 30.6 -2.8 9 17.8 WNW 9 15 5 8 1009.3 1009.0 0.0
30/04:30pm 34.5 29.7 -2.9 9 17.7 N 13 22 7 12 1009.6 1009.3 0.0
30/04:00pm 34.6 30.5 -2.9 9 17.7 N 9 20 5 11 1010.1 1009.8 0.0
30/03:30pm 35.2 29.1 -2.4 9 18.0 N 20 33 11 18 1010.5 1010.2 0.0
30/03:00pm 36.3 31.4 -3.2 8 18.8 NW 13 24 7 13 1010.9 1010.6 0.0
30/02:30pm 35.2 30.6 -1.0 10 17.7 NNE 13 19 7 10 1011.4 1011.1 0.0
30/02:00pm 35.0 31.2 -1.1 10 17.6 NE 9 22 5 12 1012.1 1011.7 0.0
30/01:30pm 34.0 29.3 -1.9 10 17.2 NNW 13 20 7 11 1012.7 1012.3 0.0
30/01:00pm 33.7 29.1 -0.8 11 16.8 NNE 13 24 7 13 1013.2 1012.8 0.0
30/12:30pm 33.1 29.0 -0.1 12 16.2 NE 11 22 6 12 1013.7 1013.3 0.0
30/12:00pm 32.2 27.8 0.3 13 15.6 E 13 22 7 12 1014.2 1013.8 0.0
30/11:30am 31.5 26.6 -0.2 13 15.3 ENE 15 20 8 11 1014.7 1014.3 0.0
30/11:00am 31.1 26.6 2.3 16 14.5 E 15 24 8 13 1015.1 1014.7 0.0
30/10:30am 29.9 25.4 2.2 17 13.8 E 15 24 8 13 1015.2 1014.8 0.0
30/10:00am 28.8 23.7 2.9 19 13.0 ESE 19 24 10 13 1015.3 1014.9 0.0
30/09:30am 27.6 22.5 3.3 21 12.2 E 19 24 10 13 1015.3 1014.9 0.0
30/09:00am 26.0 20.9 3.3 23 11.2 E 19 24 10 13 1015.5 1015.2 0.0
30/08:30am 24.5 19.8 3.2 25 10.4 ESE 17 24 9 13 1015.5 1015.2 0.0
30/08:00am 22.7 19.5 2.8 27 9.5 SE 9 15 5 8 1015.4 1015.0 0.0
30/07:30am 19.2 16.3 1.7 31 8.0 S 6 9 3 5 1015.5 1015.2 0.0
30/07:00am 15.5 12.3 -0.7 33 6.8 S 6 7 3 4 1015.5 1015.2 0.0
30/06:30am 15.8 12.4 -0.4 33 6.9 SSW 7 7 4 4 1015.2 1014.8 0.0
30/06:00am 17.0 15.0 0.2 32 7.3 CALM 0 0 0 0 1014.9 1014.5 0.0
30/05:30am 17.7 14.4 -0.1 30 7.7 SW 7 9 4 5 1014.8 1014.4 0.0
30/05:00am 19.4 16.1 0.4 28 8.5 SW 7 9 4 5 1014.7 1014.3 0.0
30/04:30am 20.9 18.6 0.7 26 9.2 S 2 7 1 4 1014.8 1014.4 0.0
30/04:00am 21.5 18.3 0.7 25 9.5 SW 7 9 4 5 1014.8 1014.4 0.0
30/03:30am 22.5 20.7 0.9 24 10.0 CALM 0 6 0 3 1014.6 1014.2 0.0
30/03:00am 22.8 19.2 0.6 23 10.2 S 9 13 5 7 1014.9 1014.5 0.0
30/02:30am 22.9 18.9 0.7 23 10.2 S 11 13 6 7 1015.1 1014.7 0.0
30/02:00am 22.4 18.8 0.3 23 10.1 SSW 9 13 5 7 1015.4 1015.0 0.0
30/01:30am 22.7 19.1 0.5 23 10.2 SW 9 13 5 7 1015.6 1015.3 0.0
30/01:00am 22.9 19.6 0.1 22 10.4 SW 7 9 4 5 1015.6 1015.3 0.0
30/12:30am 23.9 20.3 0.3 21 10.9 SSW 9 13 5 7 1015.7 1015.4 0.0
30/12:00am 24.7 20.7 0.3 20 11.3 S 11 13 6 7 1015.9 1015.6 0.0
 
Date/Time
CDT
Temp
°C
App
Temp
°C
Dew
Point
Rel
Hum
%
Delta-T
°C
Wind Press
QNH
hPa
Press
MSL
hPa
Rain
since 9 am
mm
Dir
 
Spd
km/h
Gust
km/h
Spd
kts
Gust
kts
29/11:30pm 25.7 21.2 -0.4 18 12.0 S 13 17 7 9 1015.8 1015.5 0.0
29/11:00pm 26.2 20.9 -0.8 17 12.4 SSE 17 24 9 13 1015.8 1015.5 0.0
29/10:30pm 21.6 18.0 -7.0 14 11.2 ENE 4 24 2 13 1015.7 1015.4 0.0
29/10:00pm 21.9 18.7 -6.8 14 11.3 ENE 2 9 1 5 1015.5 1015.2 0.0
29/09:30pm 22.7 19.9 -7.1 13 11.8 CALM 0 0 0 0 1015.5 1015.2 0.0
29/09:00pm 24.8 22.0 -6.5 12 12.8 CALM 0 0 0 0 1015.4 1015.0 0.0
29/08:30pm 26.2 23.6 -5.4 12 13.4 CALM 0 0 0 0 1015.4 1015.0 0.0
29/08:00pm 27.7 25.1 -5.4 11 14.2 CALM 0 0 0 0 1015.2 1014.8 0.0
29/07:30pm 30.6 28.0 -4.5 10 15.6 CALM 0 0 0 0 1014.9 1014.5 0.0

Other Formats:

Comma delimited format used in spreadsheet applications
http://www.bom.gov.au/fwo/IDS60801/IDS60801.94655.axf

JavaScript Object Notation format (JSON) in row-major order
http://www.bom.gov.au/fwo/IDS60801/IDS60801.94655.json